createdAt,value
2018-09-06T00:01:10.622Z,12.60
2018-09-06T00:03:39.029Z,9.70
2018-09-06T00:06:07.497Z,12.07
2018-09-06T00:08:35.872Z,11.77
2018-09-06T00:11:04.365Z,10.43
2018-09-06T00:13:32.753Z,9.20
2018-09-06T00:16:01.160Z,11.90
2018-09-06T00:18:29.586Z,9.27
2018-09-06T00:20:58.116Z,9.00
2018-09-06T00:23:26.522Z,9.30
2018-09-06T00:25:54.901Z,9.73
2018-09-06T00:28:23.326Z,9.00
2018-09-06T00:30:51.803Z,9.23
2018-09-06T00:33:20.376Z,9.00
2018-09-06T00:35:49.044Z,9.40
2018-09-06T00:38:17.664Z,8.20
2018-09-06T00:40:46.272Z,11.90
2018-09-06T00:43:15.144Z,8.73
2018-09-06T00:45:43.781Z,9.20
2018-09-06T00:48:12.169Z,9.47
2018-09-06T00:50:40.796Z,9.30
2018-09-06T00:53:09.164Z,10.53
2018-09-06T00:55:37.607Z,8.83
2018-09-06T00:58:06.032Z,8.67
2018-09-06T01:00:34.439Z,9.43
2018-09-06T01:03:02.883Z,9.80
2018-09-06T01:05:31.470Z,9.00
2018-09-06T01:08:00.013Z,9.60
2018-09-06T01:10:28.370Z,8.50
2018-09-06T01:12:56.836Z,8.93
2018-09-06T01:15:25.341Z,10.20
2018-09-06T01:17:53.828Z,15.40
2018-09-06T01:20:22.228Z,9.00
2018-09-06T01:22:50.892Z,9.23
2018-09-06T01:25:19.399Z,8.47
2018-09-06T01:27:47.826Z,9.60
2018-09-06T01:30:19.321Z,10.97
2018-09-06T01:32:47.865Z,9.43
2018-09-06T01:35:16.505Z,9.20
2018-09-06T01:37:45.044Z,9.47
2018-09-06T01:40:13.549Z,10.33
2018-09-06T01:42:41.981Z,9.27
2018-09-06T01:45:10.412Z,9.37
2018-09-06T01:47:38.951Z,10.80
2018-09-06T01:50:07.363Z,9.47
2018-09-06T01:52:35.718Z,9.80
2018-09-06T01:55:04.125Z,9.20
2018-09-06T01:57:32.587Z,9.10
2018-09-06T02:00:00.987Z,9.13
2018-09-06T02:02:29.405Z,10.23
2018-09-06T02:04:57.788Z,9.73
2018-09-06T02:07:26.223Z,9.30
2018-09-06T02:09:54.611Z,10.37
2018-09-06T02:12:23.131Z,10.00
2018-09-06T02:14:51.544Z,9.90
2018-09-06T02:17:19.897Z,11.37
2018-09-06T02:19:48.367Z,10.27
2018-09-06T02:22:16.868Z,10.70
2018-09-06T02:24:45.367Z,10.03
2018-09-06T02:27:13.839Z,9.63
2018-09-06T02:29:42.260Z,10.70
2018-09-06T02:32:10.641Z,9.60
2018-09-06T02:34:39.029Z,10.37
2018-09-06T02:37:07.427Z,10.57
2018-09-06T02:39:35.820Z,10.90
2018-09-06T02:42:04.210Z,10.30
2018-09-06T02:44:32.665Z,11.13
2018-09-06T02:47:01.129Z,11.97
2018-09-06T02:49:34.924Z,11.17
2018-09-06T02:52:03.330Z,9.47
2018-09-06T02:54:31.742Z,9.60
2018-09-06T02:57:00.184Z,9.80
2018-09-06T02:59:28.574Z,10.90
2018-09-06T03:01:56.977Z,10.77
2018-09-06T03:04:25.394Z,11.13
2018-09-06T03:06:53.816Z,11.00
2018-09-06T03:09:23.106Z,10.30
2018-09-06T03:11:58.401Z,11.27
2018-09-06T03:14:26.907Z,11.60
2018-09-06T03:16:55.370Z,10.07
2018-09-06T03:19:23.749Z,11.13
2018-09-06T03:21:52.171Z,11.50
2018-09-06T03:24:20.985Z,9.83
2018-09-06T03:26:49.458Z,11.13
2018-09-06T03:29:17.885Z,11.70
2018-09-06T03:31:46.415Z,12.67
2018-09-06T03:34:14.910Z,13.07
2018-09-06T03:36:43.405Z,11.50
2018-09-06T03:39:11.890Z,11.90
2018-09-06T03:41:40.289Z,11.30
2018-09-06T03:44:08.737Z,11.27
2018-09-06T03:46:37.196Z,11.43
2018-09-06T03:49:05.620Z,12.03
2018-09-06T03:51:34.013Z,11.77
2018-09-06T03:54:02.433Z,11.03
2018-09-06T03:56:30.882Z,11.87
2018-09-06T03:58:59.322Z,11.03
2018-09-06T04:01:28.525Z,13.70
2018-09-06T04:03:56.941Z,11.53
2018-09-06T04:06:25.542Z,11.23
2018-09-06T04:08:53.938Z,16.13
2018-09-06T04:11:22.368Z,11.67
2018-09-06T04:13:50.870Z,12.30
2018-09-06T04:16:19.386Z,11.07
2018-09-06T04:18:48.236Z,11.20
2018-09-06T04:21:16.904Z,9.70
2018-09-06T04:23:45.495Z,14.40
2018-09-06T04:26:14.028Z,11.63
2018-09-06T04:28:42.574Z,26.83
2018-09-06T04:31:10.960Z,43.37
2018-09-06T04:33:39.428Z,31.70
2018-09-06T04:36:08.129Z,24.13
2018-09-06T04:38:36.462Z,13.60
2018-09-06T04:41:05.113Z,11.93
2018-09-06T04:43:33.652Z,11.67
2018-09-06T04:46:02.036Z,11.63
2018-09-06T04:48:30.414Z,11.30
2018-09-06T04:50:58.780Z,12.07
2018-09-06T04:53:27.264Z,11.50
2018-09-06T04:55:55.854Z,13.70
2018-09-06T04:58:24.292Z,15.13
2018-09-06T05:00:52.795Z,15.83
2018-09-06T05:03:21.253Z,11.63
2018-09-06T05:05:49.762Z,13.90
2018-09-06T05:08:18.352Z,11.97
2018-09-06T05:10:46.828Z,12.63
2018-09-06T05:13:15.343Z,11.83
2018-09-06T05:15:43.967Z,12.53
2018-09-06T05:18:12.513Z,11.47
2018-09-06T05:20:40.976Z,12.57
2018-09-06T05:23:09.468Z,11.37
2018-09-06T05:25:37.867Z,12.33
2018-09-06T05:28:06.344Z,12.50
2018-09-06T05:30:34.812Z,12.50
2018-09-06T05:33:03.248Z,18.50
2018-09-06T05:35:31.632Z,13.37
2018-09-06T05:38:00.045Z,11.77
2018-09-06T05:40:28.557Z,12.77
2018-09-06T05:42:57.103Z,12.70
2018-09-06T05:45:25.552Z,14.47
2018-09-06T05:47:58.162Z,12.80
2018-09-06T05:50:27.751Z,16.03
2018-09-06T05:52:56.130Z,15.17
2018-09-06T05:55:24.730Z,17.33
2018-09-06T05:57:53.469Z,15.43
2018-09-06T06:00:27.490Z,16.97
2018-09-06T06:02:57.571Z,17.43
2018-09-06T06:05:26.117Z,15.20
2018-09-06T06:08:05.477Z,14.90
2018-09-06T06:10:33.914Z,17.13
2018-09-06T06:13:02.402Z,15.90
2018-09-06T06:15:30.785Z,17.17
2018-09-06T06:17:59.202Z,15.30
2018-09-06T06:20:28.201Z,15.77
2018-09-06T06:22:56.704Z,16.13
2018-09-06T06:25:25.196Z,15.57
2018-09-06T06:27:53.674Z,15.37
2018-09-06T06:30:22.120Z,19.33
2018-09-06T06:32:50.568Z,15.93
2018-09-06T06:35:19.134Z,15.70
2018-09-06T06:37:47.865Z,15.00
2018-09-06T06:40:16.435Z,15.80
2018-09-06T06:42:44.980Z,15.60
2018-09-06T06:45:13.527Z,19.23
2018-09-06T06:47:41.957Z,21.97
2018-09-06T06:50:10.542Z,18.17
2018-09-06T06:52:38.965Z,25.83
2018-09-06T06:55:07.423Z,15.13
2018-09-06T06:57:35.936Z,17.37
2018-09-06T07:00:04.860Z,16.17
2018-09-06T07:02:33.372Z,16.50
2018-09-06T07:05:01.751Z,18.10
2018-09-06T07:07:30.966Z,19.57
2018-09-06T07:09:59.358Z,17.57
2018-09-06T07:12:27.834Z,20.40
2018-09-06T07:14:56.308Z,17.87
2018-09-06T07:17:25.640Z,19.70
2018-09-06T07:19:54.205Z,19.03
2018-09-06T07:22:22.659Z,20.53
2018-09-06T07:24:51.071Z,19.30
2018-09-06T07:27:19.584Z,19.83
2018-09-06T07:29:47.991Z,20.50
2018-09-06T07:32:16.524Z,21.67
2018-09-06T07:34:44.928Z,22.90
2018-09-06T07:37:13.380Z,19.47
2018-09-06T07:39:42.216Z,21.30
2018-09-06T07:42:10.789Z,19.73
2018-09-06T07:44:39.217Z,18.83
2018-09-06T07:47:07.684Z,18.20
2018-09-06T07:49:36.144Z,23.53
2018-09-06T07:52:05.708Z,16.87
2018-09-06T07:54:34.105Z,17.00
2018-09-06T07:57:02.552Z,16.27
2018-09-06T07:59:31.046Z,19.90
2018-09-06T08:01:59.613Z,19.77
2018-09-06T08:04:28.034Z,17.40
2018-09-06T08:06:56.540Z,18.33
2018-09-06T08:09:25.027Z,17.60
2018-09-06T08:11:53.529Z,17.20
2018-09-06T08:14:21.904Z,16.73
2018-09-06T08:16:50.416Z,16.87
2018-09-06T08:19:19.468Z,17.87
2018-09-06T08:21:47.995Z,17.33
2018-09-06T08:24:16.539Z,18.13
2018-09-06T08:26:45.069Z,17.43
2018-09-06T08:29:13.890Z,18.53
2018-09-06T08:31:42.464Z,18.97
2018-09-06T08:34:10.864Z,17.90
2018-09-06T08:36:39.397Z,16.63
2018-09-06T08:39:09.560Z,17.17
2018-09-06T08:41:41.402Z,17.67
2018-09-06T08:44:10.100Z,17.70
2018-09-06T08:46:39.474Z,17.50
2018-09-06T08:49:07.900Z,17.03
2018-09-06T08:51:36.481Z,17.80
2018-09-06T08:54:04.878Z,19.23
2018-09-06T08:56:33.308Z,16.73
2018-09-06T08:59:01.983Z,17.10
2018-09-06T09:01:36.804Z,17.87
2018-09-06T09:04:05.996Z,18.70
2018-09-06T09:06:34.565Z,18.07
2018-09-06T09:09:03.513Z,18.33
2018-09-06T09:11:31.932Z,18.83
2018-09-06T09:14:00.425Z,16.57
2018-09-06T09:16:28.919Z,18.70
2018-09-06T09:18:57.598Z,18.50
2018-09-06T09:21:26.353Z,16.33
2018-09-06T09:23:54.752Z,17.83
2018-09-06T09:26:23.204Z,21.37
2018-09-06T09:28:51.598Z,19.63
2018-09-06T09:31:20.084Z,16.93
2018-09-06T09:33:48.629Z,17.63
2018-09-06T09:36:17.203Z,17.70
2018-09-06T09:38:45.800Z,18.53
2018-09-06T09:41:14.540Z,17.73
2018-09-06T09:43:43.026Z,18.13
2018-09-06T09:48:39.149Z,20.03
2018-09-06T09:51:08.669Z,17.30
2018-09-06T09:53:37.135Z,18.93
2018-09-06T09:56:05.672Z,15.60
2018-09-06T09:58:34.147Z,20.80
2018-09-06T10:01:02.616Z,18.90
2018-09-06T10:03:36.420Z,18.20
2018-09-06T10:06:10.247Z,18.17
2018-09-06T10:08:44.178Z,19.93
2018-09-06T10:11:13.668Z,23.50
2018-09-06T10:13:42.205Z,20.03
2018-09-06T10:16:10.719Z,18.00
2018-09-06T10:18:39.291Z,17.53
2018-09-06T10:21:07.728Z,15.80
2018-09-06T10:23:36.226Z,16.73
2018-09-06T10:26:04.704Z,15.37
2018-09-06T10:28:33.289Z,16.07
2018-09-06T10:31:02.009Z,16.20
2018-09-06T10:33:30.440Z,16.80
2018-09-06T10:35:58.948Z,17.13
2018-09-06T10:38:27.436Z,16.33
2018-09-06T10:40:55.927Z,18.23
2018-09-06T10:43:24.385Z,22.83
2018-09-06T10:45:52.903Z,18.20
2018-09-06T10:48:21.322Z,17.87
2018-09-06T10:50:49.836Z,17.10
2018-09-06T10:53:18.369Z,15.13
2018-09-06T10:55:46.851Z,19.80
2018-09-06T10:58:15.425Z,21.13
2018-09-06T11:00:44.204Z,19.87
2018-09-06T11:03:13.290Z,18.97
2018-09-06T11:05:42.114Z,17.47
2018-09-06T11:08:10.973Z,19.13
2018-09-06T11:10:40.191Z,20.43
2018-09-06T11:13:08.652Z,19.77
2018-09-06T11:15:37.098Z,22.90
2018-09-06T11:18:05.597Z,19.90
2018-09-06T11:20:33.954Z,19.23
2018-09-06T11:23:02.375Z,20.63
2018-09-06T11:25:30.820Z,19.70
2018-09-06T11:28:00.294Z,19.57
2018-09-06T11:30:28.749Z,19.90
2018-09-06T11:32:57.535Z,19.80
2018-09-06T11:35:26.361Z,19.90
2018-09-06T11:37:55.110Z,19.80
2018-09-06T11:40:24.551Z,19.50
2018-09-06T11:42:53.224Z,20.13
2018-09-06T11:45:21.692Z,19.27
2018-09-06T11:47:50.411Z,18.87
2018-09-06T11:50:18.714Z,23.83
2018-09-06T11:52:47.481Z,16.90
2018-09-06T11:55:16.119Z,24.40
2018-09-06T11:57:44.752Z,18.93
2018-09-06T12:00:13.564Z,19.10
2018-09-06T12:02:42.141Z,17.53
2018-09-06T12:05:10.550Z,17.97
2018-09-06T12:07:39.057Z,19.13
2018-09-06T12:10:07.668Z,18.60
2018-09-06T12:12:37.173Z,18.03
2018-09-06T12:15:05.622Z,21.77
2018-09-06T12:17:34.057Z,19.40
2018-09-06T12:20:04.511Z,17.60
2018-09-06T12:22:32.980Z,20.87
2018-09-06T12:25:01.497Z,17.13
2018-09-06T12:27:30.184Z,23.97
2018-09-06T12:29:58.900Z,19.30
2018-09-06T12:32:27.553Z,17.37
2018-09-06T12:34:55.935Z,17.50
2018-09-06T12:37:24.407Z,19.03
2018-09-06T12:39:52.882Z,15.80
2018-09-06T12:42:21.326Z,17.50
2018-09-06T12:44:49.825Z,17.60
2018-09-06T12:47:18.368Z,17.70
2018-09-06T12:49:46.980Z,16.50
2018-09-06T12:52:15.736Z,16.50
2018-09-06T12:54:44.334Z,16.87
2018-09-06T12:57:13.047Z,17.00
2018-09-06T12:59:41.481Z,18.27
2018-09-06T13:02:10.180Z,15.10
2018-09-06T13:04:39.038Z,15.40
2018-09-06T13:07:07.856Z,19.23
2018-09-06T13:09:36.401Z,16.47
2018-09-06T13:12:04.896Z,17.43
2018-09-06T13:14:33.264Z,17.43
2018-09-06T13:17:01.726Z,17.97
2018-09-06T13:19:30.130Z,16.63
2018-09-06T13:21:58.602Z,21.07
2018-09-06T13:24:27.409Z,17.00
2018-09-06T13:26:57.730Z,17.07
2018-09-06T13:29:26.139Z,16.43
2018-09-06T13:31:55.582Z,18.00
2018-09-06T13:34:23.954Z,17.90
2018-09-06T13:36:52.368Z,17.73
2018-09-06T13:39:20.849Z,16.63
2018-09-06T13:41:49.332Z,17.50
2018-09-06T13:44:17.813Z,16.10
2018-09-06T13:46:46.499Z,16.77
2018-09-06T13:49:15.123Z,15.37
2018-09-06T13:51:43.556Z,16.30
2018-09-06T13:54:12.014Z,14.13
2018-09-06T13:56:40.453Z,16.80
2018-09-06T13:59:09.005Z,16.40
2018-09-06T14:01:37.463Z,15.27
2018-09-06T14:04:05.918Z,14.57
2018-09-06T14:06:34.385Z,17.63
2018-09-06T14:09:02.854Z,16.07
2018-09-06T14:11:31.342Z,16.20
2018-09-06T14:13:59.848Z,14.77
2018-09-06T14:16:28.757Z,16.97
2018-09-06T14:18:57.227Z,14.73
2018-09-06T14:21:25.856Z,13.53
2018-09-06T14:23:54.539Z,15.53
2018-09-06T14:26:23.323Z,15.83
2018-09-06T14:28:52.279Z,14.07
2018-09-06T14:31:20.787Z,16.23
2018-09-06T14:33:49.320Z,21.97
2018-09-06T14:36:17.928Z,19.23
2018-09-06T14:38:46.611Z,15.97
2018-09-06T14:41:15.799Z,15.80
2018-09-06T14:43:44.834Z,22.27
2018-09-06T14:46:13.309Z,33.03
2018-09-06T14:48:41.781Z,20.10
2018-09-06T14:51:12.431Z,22.53
2018-09-06T14:53:40.934Z,19.20
2018-09-06T14:56:09.643Z,17.10
2018-09-06T14:58:38.220Z,14.83
2018-09-06T15:01:06.972Z,17.07
2018-09-06T15:03:35.421Z,16.07
2018-09-06T15:06:03.877Z,21.23
2018-09-06T15:08:32.319Z,15.40
2018-09-06T15:11:00.841Z,15.53
2018-09-06T15:13:29.242Z,16.80
2018-09-06T15:15:57.697Z,16.60
2018-09-06T15:18:26.181Z,14.13
2018-09-06T15:20:55.441Z,19.73
2018-09-06T15:23:24.032Z,14.73
2018-09-06T15:25:52.683Z,16.97
2018-09-06T15:28:21.504Z,14.40
2018-09-06T15:30:49.897Z,17.17
2018-09-06T15:33:18.409Z,17.03
2018-09-06T15:35:46.937Z,15.13
2018-09-06T15:38:16.036Z,17.80
2018-09-06T15:40:44.523Z,14.70
2018-09-06T15:43:13.275Z,15.73
2018-09-06T15:45:41.689Z,16.50
2018-09-06T15:48:10.133Z,14.40
2018-09-06T15:50:38.557Z,14.50
2018-09-06T15:53:07.298Z,16.33
2018-09-06T15:55:35.824Z,13.77
2018-09-06T15:58:04.403Z,15.63
2018-09-06T16:00:38.980Z,14.40
2018-09-06T16:17:39.016Z,15.00
2018-09-06T16:20:07.723Z,13.67
2018-09-06T16:22:36.233Z,14.43
2018-09-06T16:25:04.720Z,14.87
2018-09-06T16:27:33.128Z,15.60
2018-09-06T16:30:01.553Z,14.40
2018-09-06T16:32:30.045Z,14.00
2018-09-06T16:34:58.469Z,12.33
2018-09-06T16:37:26.964Z,12.97
2018-09-06T16:39:55.456Z,12.60
2018-09-06T16:42:23.892Z,14.63
2018-09-06T16:44:52.380Z,12.80
2018-09-06T16:47:20.822Z,12.77
2018-09-06T16:49:49.298Z,13.50
2018-09-06T16:52:17.830Z,13.30
2018-09-06T16:54:46.292Z,12.93
2018-09-06T16:57:15.103Z,12.70
2018-09-06T16:59:43.615Z,15.53
2018-09-06T17:02:12.096Z,15.10
2018-09-06T17:04:40.605Z,12.60
2018-09-06T17:07:09.011Z,11.90
2018-09-06T17:09:37.585Z,12.77
2018-09-06T17:12:06.002Z,13.43
2018-09-06T17:14:34.476Z,12.40
2018-09-06T17:17:02.779Z,11.77
2018-09-06T17:19:31.220Z,13.07
2018-09-06T17:21:59.688Z,13.10
2018-09-06T17:24:28.177Z,13.20
2018-09-06T17:26:56.671Z,13.13
2018-09-06T17:29:25.141Z,11.87
2018-09-06T17:31:53.650Z,12.33
2018-09-06T17:34:22.080Z,14.20
2018-09-06T17:36:51.642Z,13.03
2018-09-06T17:39:20.801Z,12.70
2018-09-06T17:41:50.652Z,14.20
2018-09-06T17:44:19.231Z,13.20
2018-09-06T17:46:47.860Z,13.03
2018-09-06T17:49:16.747Z,12.23
2018-09-06T17:51:45.282Z,12.37
2018-09-06T17:54:13.761Z,13.47
2018-09-06T17:56:42.210Z,14.00
2018-09-06T17:59:10.759Z,14.47
2018-09-06T18:01:41.338Z,12.90
2018-09-06T18:04:09.872Z,13.40
2018-09-06T18:06:38.320Z,13.97
2018-09-06T18:09:10.225Z,13.97
2018-09-06T18:11:39.025Z,15.80
2018-09-06T18:14:07.522Z,16.03
2018-09-06T18:16:36.098Z,16.30
2018-09-06T18:19:04.605Z,16.60
2018-09-06T18:21:33.316Z,15.87
2018-09-06T18:24:01.880Z,16.73
2018-09-06T18:26:30.470Z,15.97
2018-09-06T18:28:59.405Z,16.37
2018-09-06T18:31:27.943Z,17.33
2018-09-06T18:33:56.422Z,16.73
2018-09-06T18:36:25.091Z,17.30
2018-09-06T18:38:53.736Z,18.37
2018-09-06T18:41:22.202Z,17.23
2018-09-06T18:43:50.651Z,19.07
2018-09-06T18:46:19.076Z,17.23
2018-09-06T18:48:48.453Z,17.63
2018-09-06T18:51:17.024Z,19.10
2018-09-06T18:53:45.930Z,18.30
2018-09-06T18:56:14.561Z,21.67
2018-09-06T18:58:43.209Z,18.27
2018-09-06T19:01:12.044Z,17.80
2018-09-06T19:03:40.468Z,17.80
2018-09-06T19:06:08.997Z,17.30
2018-09-06T19:08:37.529Z,19.63
2018-09-06T19:11:06.159Z,19.70
2018-09-06T19:13:34.682Z,19.37
2018-09-06T19:16:03.280Z,19.57
2018-09-06T19:18:31.971Z,19.47
2018-09-06T19:21:00.484Z,21.67
2018-09-06T19:23:28.913Z,20.93
2018-09-06T19:25:57.501Z,20.93
2018-09-06T19:28:25.931Z,21.67
2018-09-06T19:30:54.437Z,21.30
2018-09-06T19:33:22.968Z,24.13
2018-09-06T19:35:51.769Z,22.27
2018-09-06T19:38:20.356Z,24.27
2018-09-06T19:40:49.153Z,23.63
2018-09-06T19:43:17.818Z,25.17
2018-09-06T19:45:46.384Z,24.30
2018-09-06T19:48:15.064Z,22.53
2018-09-06T19:50:43.662Z,25.40
2018-09-06T19:53:12.367Z,23.27
2018-09-06T19:55:40.934Z,24.73
2018-09-06T19:58:09.407Z,25.40
2018-09-06T20:00:37.879Z,25.10
2018-09-06T20:03:06.374Z,28.33
2018-09-06T20:05:35.675Z,29.53
2018-09-06T20:08:04.211Z,28.07
2018-09-06T20:10:32.773Z,27.40
2018-09-06T20:13:01.460Z,27.93
2018-09-06T20:15:29.877Z,27.50
2018-09-06T20:17:58.283Z,35.43
2018-09-06T20:20:26.736Z,32.60
2018-09-06T20:22:55.232Z,28.90
2018-09-06T20:25:24.035Z,33.60
2018-09-06T20:27:52.628Z,35.60
2018-09-06T20:30:21.135Z,34.67
2018-09-06T20:32:49.656Z,31.57
2018-09-06T20:35:18.371Z,33.03
2018-09-06T20:37:46.904Z,31.87
2018-09-06T20:40:15.444Z,37.13
2018-09-06T20:42:44.076Z,35.37
2018-09-06T20:45:12.509Z,33.30
2018-09-06T20:47:41.084Z,34.13
2018-09-06T20:50:09.640Z,35.90
2018-09-06T20:52:38.069Z,33.67
2018-09-06T20:55:06.592Z,36.23
2018-09-06T20:57:35.116Z,34.10
2018-09-06T21:00:03.898Z,35.37
2018-09-06T21:02:37.296Z,34.50
2018-09-06T21:05:06.677Z,37.97
2018-09-06T21:07:35.188Z,36.00
2018-09-06T21:10:04.145Z,32.23
2018-09-06T21:12:32.749Z,34.83
2018-09-06T21:15:01.857Z,36.17
2018-09-06T21:17:30.408Z,34.83
2018-09-06T21:19:58.939Z,34.13
2018-09-06T21:22:27.695Z,32.13
2018-09-06T21:24:56.308Z,32.03
2018-09-06T21:27:24.937Z,36.60
2018-09-06T21:29:53.554Z,36.90
2018-09-06T21:32:22.366Z,28.00
2018-09-06T21:34:51.124Z,33.87
2018-09-06T21:37:19.576Z,32.00
2018-09-06T21:39:48.050Z,36.67
2018-09-06T21:42:16.679Z,32.17
2018-09-06T21:44:45.217Z,34.63
2018-09-06T21:47:14.074Z,32.27
2018-09-06T21:49:42.759Z,29.07
2018-09-06T21:52:13.533Z,31.07
2018-09-06T21:54:42.087Z,30.93
2018-09-06T21:57:11.287Z,33.53
2018-09-06T21:59:40.696Z,32.27
2018-09-06T22:02:13.577Z,29.60
2018-09-06T22:04:42.318Z,32.67
2018-09-06T22:07:11.063Z,31.03
2018-09-06T22:09:39.837Z,30.30
2018-09-06T22:12:12.660Z,33.20
2018-09-06T22:14:41.151Z,33.50
2018-09-06T22:17:09.664Z,32.00
2018-09-06T22:19:38.253Z,31.13
2018-09-06T22:22:06.738Z,33.43
2018-09-06T22:24:35.225Z,31.20
2018-09-06T22:27:03.862Z,30.30
2018-09-06T22:29:32.358Z,36.83
2018-09-06T22:32:00.864Z,30.60
2018-09-06T22:34:29.356Z,30.87
2018-09-06T22:36:57.759Z,30.60
2018-09-06T22:39:26.670Z,38.93
2018-09-06T22:41:55.180Z,30.47
2018-09-06T22:44:23.575Z,32.80
2018-09-06T22:46:52.104Z,32.00
2018-09-06T22:49:20.564Z,34.53
2018-09-06T22:51:49.095Z,32.13
2018-09-06T22:54:17.631Z,32.53
2018-09-06T22:56:46.350Z,36.57
2018-09-06T22:59:14.994Z,36.60
2018-09-06T23:01:43.455Z,36.30
2018-09-06T23:04:11.900Z,31.60
2018-09-06T23:06:40.346Z,34.57
2018-09-06T23:09:09.063Z,36.80
2018-09-06T23:11:37.597Z,36.10
2018-09-06T23:14:06.084Z,39.77
2018-09-06T23:16:34.496Z,35.20
2018-09-06T23:19:02.917Z,35.33
2018-09-06T23:21:31.336Z,32.60
2018-09-06T23:23:59.700Z,30.03
2018-09-06T23:26:28.199Z,34.60
2018-09-06T23:28:56.565Z,35.50
2018-09-06T23:31:25.430Z,34.23
2018-09-06T23:33:53.942Z,37.80
2018-09-06T23:36:22.523Z,34.03
2018-09-06T23:38:50.957Z,36.13
2018-09-06T23:41:19.500Z,36.30
2018-09-06T23:43:47.934Z,35.97
2018-09-06T23:46:16.526Z,32.60
2018-09-06T23:48:45.248Z,31.53
2018-09-06T23:51:13.690Z,31.70
2018-09-06T23:53:42.149Z,35.17
2018-09-06T23:56:10.669Z,32.90
2018-09-06T23:58:39.055Z,35.87
